createdAt,value
2023-02-23T00:00:31.602Z,18.8
2023-02-23T00:05:31.445Z,19.6
2023-02-23T00:10:31.417Z,18.3
2023-02-23T00:15:31.577Z,23.3
2023-02-23T00:20:31.380Z,20.7
2023-02-23T00:25:31.371Z,22.4
2023-02-23T00:30:31.654Z,21.4
2023-02-23T00:35:31.639Z,26.8
2023-02-23T00:40:31.393Z,24.1
2023-02-23T00:45:31.319Z,19.4
2023-02-23T00:50:31.350Z,17.2
2023-02-23T00:55:31.335Z,17.2
2023-02-23T01:00:31.339Z,15.9
2023-02-23T01:05:31.416Z,15.2
2023-02-23T01:10:31.285Z,14.2
2023-02-23T01:15:31.338Z,14.1
2023-02-23T01:20:31.373Z,14.5
2023-02-23T01:25:31.275Z,13.5
2023-02-23T01:30:31.572Z,17.9
2023-02-23T01:35:31.493Z,17.7
2023-02-23T01:40:31.295Z,13.9
2023-02-23T01:45:31.324Z,14.2
2023-02-23T01:50:31.527Z,16.3
2023-02-23T01:55:31.607Z,17.3
2023-02-23T02:00:31.384Z,13.6
2023-02-23T02:05:31.402Z,14.8
2023-02-23T02:10:31.224Z,16.6
2023-02-23T02:15:31.211Z,79.9
2023-02-23T02:20:31.419Z,41.5
2023-02-23T02:25:31.174Z,20.2
2023-02-23T02:30:31.169Z,16.4
2023-02-23T02:35:31.328Z,15.0
2023-02-23T02:40:31.111Z,16.5
2023-02-23T02:45:31.443Z,19.3
2023-02-23T02:50:31.419Z,19.6
2023-02-23T02:55:31.132Z,18.7
2023-02-23T03:00:31.156Z,15.8
2023-02-23T03:05:31.277Z,14.7
2023-02-23T03:10:31.188Z,16.4
2023-02-23T03:15:31.133Z,17.1
2023-02-23T03:20:31.012Z,21.2
2023-02-23T03:25:31.171Z,19.0
2023-02-23T03:30:31.173Z,19.6
2023-02-23T03:35:31.272Z,20.7
2023-02-23T03:40:31.093Z,20.8
2023-02-23T03:45:31.106Z,25.3
2023-02-23T03:50:31.233Z,22.6
2023-02-23T03:55:30.966Z,19.6
2023-02-23T04:00:30.963Z,20.9
2023-02-23T04:05:31.113Z,25.4
2023-02-23T04:10:30.943Z,20.3
2023-02-23T04:15:31.045Z,48.8
2023-02-23T04:20:31.255Z,38.4
2023-02-23T04:25:31.084Z,28.3
2023-02-23T04:30:31.059Z,28.0
2023-02-23T04:35:30.950Z,21.2
2023-02-23T04:40:30.912Z,21.3
2023-02-23T04:45:31.033Z,23.0
2023-02-23T04:50:32.551Z,40.7
2023-02-23T04:55:30.881Z,22.6
2023-02-23T05:00:31.272Z,28.5
2023-02-23T05:05:30.859Z,33.8
2023-02-23T05:10:30.850Z,42.0
2023-02-23T05:15:30.966Z,27.1
2023-02-23T05:20:30.928Z,37.7
2023-02-23T05:25:31.234Z,36.2
2023-02-23T05:30:30.910Z,39.4
2023-02-23T05:35:30.968Z,28.9
2023-02-23T05:40:30.878Z,24.5
2023-02-23T05:45:30.822Z,24.0
2023-02-23T05:50:31.259Z,23.3
2023-02-23T05:55:30.944Z,23.7
2023-02-23T06:00:30.890Z,24.7
2023-02-23T06:05:30.789Z,25.1
2023-02-23T06:10:30.819Z,33.4
2023-02-23T06:15:30.807Z,27.9
2023-02-23T06:20:41.415Z,27.1
2023-02-23T06:25:30.720Z,27.4
2023-02-23T06:30:30.803Z,28.3
2023-02-23T06:35:30.840Z,30.0
2023-02-23T06:40:30.794Z,27.7
2023-02-23T06:45:30.919Z,27.8
2023-02-23T06:50:30.767Z,24.7
2023-02-23T06:55:30.844Z,25.4
2023-02-23T07:00:31.012Z,28.1
2023-02-23T07:05:30.734Z,36.1
2023-02-23T07:10:30.717Z,33.3
2023-02-23T07:15:30.872Z,27.1
2023-02-23T07:20:30.700Z,28.9
2023-02-23T07:25:30.711Z,32.3
2023-02-23T07:30:30.597Z,64.0
2023-02-23T07:35:30.689Z,33.4
2023-02-23T07:40:30.723Z,32.7
2023-02-23T07:45:31.088Z,39.0
2023-02-23T07:50:30.646Z,43.8
2023-02-23T07:55:30.616Z,37.7
2023-02-23T08:00:30.551Z,41.2
2023-02-23T08:05:30.617Z,36.8
2023-02-23T08:10:30.566Z,26.4
2023-02-23T08:15:30.656Z,27.6
2023-02-23T08:20:30.538Z,30.7
2023-02-23T08:25:30.512Z,27.2
2023-02-23T08:30:30.937Z,38.5
2023-02-23T08:35:30.469Z,30.4
2023-02-23T08:40:30.557Z,29.3
2023-02-23T08:45:30.921Z,31.3
2023-02-23T08:50:31.511Z,31.9
2023-02-23T08:55:30.462Z,29.9
2023-02-23T09:00:30.532Z,45.8
2023-02-23T09:05:30.593Z,50.9
2023-02-23T09:10:30.626Z,61.5
2023-02-23T09:15:30.424Z,56.0
2023-02-23T09:20:30.485Z,48.9
2023-02-23T09:25:30.827Z,61.4
2023-02-23T09:30:30.401Z,35.2
2023-02-23T09:35:30.350Z,32.7
2023-02-23T09:40:30.589Z,34.1
2023-02-23T09:45:30.425Z,31.4
2023-02-23T09:50:30.387Z,35.2
2023-02-23T09:55:30.462Z,33.6
2023-02-23T10:00:30.431Z,33.0
2023-02-23T10:05:30.465Z,32.3
2023-02-23T10:10:30.573Z,35.2
2023-02-23T10:15:30.421Z,41.8
2023-02-23T10:20:30.306Z,38.1
2023-02-23T10:25:30.300Z,39.5
2023-02-23T10:30:30.495Z,33.8
2023-02-23T10:35:30.399Z,47.2
2023-02-23T10:40:30.494Z,42.5
2023-02-23T10:45:30.330Z,43.6
2023-02-23T10:50:30.368Z,41.0
2023-02-23T10:55:30.542Z,35.0
2023-02-23T11:05:30.534Z,36.6
2023-02-23T11:10:30.322Z,36.5
2023-02-23T11:15:48.898Z,37.2
2023-02-23T11:20:30.177Z,36.7
2023-02-23T11:25:30.232Z,40.7
2023-02-23T11:30:30.477Z,31.6
2023-02-23T11:35:30.172Z,31.9
2023-02-23T11:40:30.135Z,33.3
2023-02-23T11:45:30.394Z,26.8
2023-02-23T11:50:30.258Z,26.1
2023-02-23T11:55:30.211Z,30.6
2023-02-23T12:00:30.309Z,25.0
2023-02-23T12:05:30.128Z,28.5
2023-02-23T12:10:30.260Z,27.4
2023-02-23T12:15:30.396Z,27.1
2023-02-23T12:20:30.144Z,23.3
2023-02-23T12:25:30.098Z,21.4
2023-02-23T12:30:30.244Z,26.7
2023-02-23T12:35:31.187Z,20.5
2023-02-23T12:40:30.093Z,24.8
2023-02-23T12:45:30.398Z,36.1
2023-02-23T12:50:30.060Z,26.1
2023-02-23T12:55:30.066Z,30.0
2023-02-23T13:00:30.253Z,20.6
2023-02-23T13:05:30.102Z,23.5
2023-02-23T13:10:30.071Z,34.7
2023-02-23T13:15:30.318Z,24.5
2023-02-23T13:20:30.113Z,25.2
2023-02-23T13:25:29.954Z,18.3
2023-02-23T13:30:31.132Z,17.4
2023-02-23T13:35:29.967Z,21.0
2023-02-23T13:40:29.973Z,16.4
2023-02-23T13:45:29.986Z,20.5
2023-02-23T13:50:29.974Z,25.0
2023-02-23T13:55:43.231Z,18.3
2023-02-23T14:00:30.009Z,17.8
2023-02-23T14:05:30.042Z,36.5
2023-02-23T14:10:29.866Z,21.2
2023-02-23T14:15:31.044Z,23.6
2023-02-23T14:20:30.369Z,19.6
2023-02-23T14:25:29.931Z,19.2
2023-02-23T14:30:31.221Z,18.2
2023-02-23T14:35:29.939Z,17.9
2023-02-23T14:40:29.925Z,20.0
2023-02-23T14:45:30.003Z,21.1
2023-02-23T14:50:29.993Z,20.5
2023-02-23T14:55:30.119Z,21.4
2023-02-23T15:00:29.891Z,19.6
2023-02-23T15:05:29.864Z,27.0
2023-02-23T15:10:30.069Z,42.0
2023-02-23T15:15:29.870Z,31.4
2023-02-23T15:20:29.885Z,22.4
2023-02-23T15:25:30.096Z,20.4
2023-02-23T15:30:29.910Z,24.4
2023-02-23T15:35:29.779Z,29.3
2023-02-23T15:40:30.079Z,29.1
2023-02-23T15:45:29.836Z,36.7
2023-02-23T15:50:36.519Z,41.0
2023-02-23T15:55:30.109Z,39.8
2023-02-23T16:00:29.716Z,51.8
2023-02-23T16:05:35.412Z,69.9
2023-02-23T16:10:29.679Z,128.3
2023-02-23T16:15:29.780Z,95.3
2023-02-23T16:20:29.760Z,86.7
2023-02-23T16:25:30.566Z,70.1
2023-02-23T16:30:30.543Z,134.7
2023-02-23T16:35:30.498Z,395.2
2023-02-23T16:40:30.512Z,157.8
2023-02-23T16:45:30.500Z,176.2
2023-02-23T16:50:30.687Z,184.4
2023-02-23T16:55:30.680Z,198.4
2023-02-23T17:00:30.364Z,129.8
2023-02-23T17:05:30.554Z,173.0
2023-02-23T17:10:30.516Z,115.1
2023-02-23T17:15:30.525Z,123.2
2023-02-23T17:20:30.668Z,119.2
2023-02-23T17:25:30.527Z,113.4
2023-02-23T17:30:30.587Z,112.1
2023-02-23T17:35:30.864Z,104.6
2023-02-23T17:40:30.394Z,107.2
2023-02-23T17:45:30.480Z,105.9
2023-02-23T17:55:29.624Z,109.1
2023-02-23T18:00:29.607Z,66.0
2023-02-23T18:05:29.755Z,63.5
2023-02-23T18:10:30.340Z,81.7
2023-02-23T18:15:29.594Z,103.0
2023-02-23T18:20:29.508Z,85.5
2023-02-23T18:25:30.311Z,98.9
2023-02-23T18:30:29.594Z,102.1
2023-02-23T18:35:29.616Z,90.0
2023-02-23T18:40:29.585Z,94.6
2023-02-23T18:45:29.514Z,74.8
2023-02-23T18:50:29.705Z,93.1
2023-02-23T18:55:29.524Z,69.9
2023-02-23T19:00:30.369Z,93.3
2023-02-23T19:05:30.268Z,156.6
2023-02-23T19:10:30.266Z,130.8
2023-02-23T19:15:30.342Z,127.3
2023-02-23T19:20:30.354Z,190.4
2023-02-23T19:25:30.307Z,125.7
2023-02-23T19:30:30.468Z,157.1
2023-02-23T19:35:29.468Z,115.0
2023-02-23T19:40:30.328Z,89.2
2023-02-23T19:45:29.436Z,107.8
2023-02-23T19:50:29.491Z,81.8
2023-02-23T19:55:30.925Z,69.1
2023-02-23T20:00:31.034Z,67.8
2023-02-23T20:05:45.350Z,68.1
2023-02-23T20:10:29.328Z,83.8
2023-02-23T20:15:29.339Z,96.2
2023-02-23T20:20:29.558Z,90.0
2023-02-23T20:25:29.546Z,82.6
2023-02-23T20:30:30.563Z,84.6
2023-02-23T20:35:29.543Z,74.0
2023-02-23T20:40:29.213Z,80.7
2023-02-23T20:45:30.549Z,94.9
2023-02-23T20:50:31.019Z,129.9
2023-02-23T20:55:29.324Z,109.2
2023-02-23T21:00:29.305Z,94.9
2023-02-23T21:05:29.324Z,83.4
2023-02-23T21:10:29.363Z,79.6
2023-02-23T21:15:29.333Z,84.8
2023-02-23T21:20:29.233Z,82.6
2023-02-23T21:25:29.276Z,83.9
2023-02-23T21:30:29.196Z,76.4
2023-02-23T21:35:29.212Z,72.9
2023-02-23T21:40:29.374Z,79.4
2023-02-23T21:45:29.191Z,72.0
2023-02-23T21:50:29.168Z,72.6
2023-02-23T21:55:29.356Z,71.7
2023-02-23T22:00:29.231Z,74.8
2023-02-23T22:05:29.249Z,74.7
2023-02-23T22:10:29.377Z,68.8
2023-02-23T22:15:29.117Z,68.8
2023-02-23T22:20:29.254Z,66.3
2023-02-23T22:25:29.326Z,65.1
2023-02-23T22:30:29.144Z,61.2
2023-02-23T22:35:29.185Z,67.9
2023-02-23T22:40:29.215Z,69.9
2023-02-23T22:45:29.153Z,62.4
2023-02-23T22:50:29.201Z,66.0
2023-02-23T22:55:29.359Z,59.9
2023-02-23T23:00:28.987Z,56.4
2023-02-23T23:05:29.145Z,60.8
2023-02-23T23:10:29.301Z,63.6
2023-02-23T23:15:29.145Z,63.8
2023-02-23T23:20:29.048Z,64.7
2023-02-23T23:25:29.301Z,64.9
2023-02-23T23:30:29.031Z,52.6
2023-02-23T23:35:29.041Z,50.3
2023-02-23T23:40:29.177Z,45.9
2023-02-23T23:45:29.181Z,37.2
2023-02-23T23:50:29.941Z,32.9
2023-02-23T23:55:31.922Z,33.4
